createdAt,value
2022-11-29T00:04:29.106Z,9.73
2022-11-29T00:10:30.581Z,10.37
2022-11-29T00:16:32.235Z,9.68
2022-11-29T00:22:33.972Z,10.50
2022-11-29T00:28:36.184Z,10.87
2022-11-29T00:34:37.718Z,10.68
2022-11-29T00:40:39.242Z,10.60
2022-11-29T00:46:40.788Z,10.18
2022-11-29T00:52:42.308Z,9.75
2022-11-29T00:58:43.855Z,10.40
2022-11-29T01:04:45.503Z,10.52
2022-11-29T01:10:47.312Z,9.93
2022-11-29T01:16:48.954Z,9.85
2022-11-29T01:22:50.544Z,10.63
2022-11-29T01:28:53.102Z,11.33
2022-11-29T01:34:54.580Z,10.68
2022-11-29T01:40:57.451Z,10.13
2022-11-29T01:46:58.943Z,10.27
2022-11-29T01:53:00.565Z,10.82
2022-11-29T01:59:03.673Z,9.73
2022-11-29T02:05:05.399Z,10.93
2022-11-29T02:11:19.099Z,9.97
2022-11-29T02:17:39.729Z,10.10
2022-11-29T02:24:06.432Z,10.48
2022-11-29T02:30:19.742Z,10.20
2022-11-29T02:36:41.715Z,10.88
2022-11-29T02:42:56.986Z,9.97
2022-11-29T02:49:07.777Z,9.90
2022-11-29T02:55:13.115Z,11.23
2022-11-29T03:01:20.150Z,9.53
2022-11-29T03:07:25.685Z,9.93
2022-11-29T03:13:45.379Z,9.93
2022-11-29T03:20:09.934Z,9.50
2022-11-29T03:26:17.412Z,9.68
2022-11-29T03:32:34.099Z,9.60
2022-11-29T03:38:40.102Z,9.65
2022-11-29T03:44:48.898Z,10.00
2022-11-29T03:50:59.275Z,10.70
2022-11-29T03:57:01.027Z,9.40
2022-11-29T04:03:11.414Z,10.53
2022-11-29T04:09:28.205Z,9.65
2022-11-29T04:15:35.580Z,9.93
2022-11-29T04:21:49.403Z,11.52
2022-11-29T04:28:09.417Z,9.75
2022-11-29T04:34:29.495Z,9.00
2022-11-29T04:40:35.893Z,9.60
2022-11-29T04:46:45.482Z,10.60
2022-11-29T04:52:47.037Z,9.88
2022-11-29T04:59:04.485Z,9.82
2022-11-29T05:05:24.708Z,9.80
2022-11-29T05:11:32.508Z,9.50
2022-11-29T05:17:44.780Z,9.90
2022-11-29T05:24:01.499Z,9.73
2022-11-29T05:30:09.433Z,9.55
2022-11-29T05:36:34.339Z,9.80
2022-11-29T05:42:36.923Z,10.15
2022-11-29T05:48:57.113Z,9.53
2022-11-29T05:55:13.967Z,9.85
2022-11-29T06:01:47.747Z,9.27
2022-11-29T06:07:53.662Z,10.53
2022-11-29T06:14:06.618Z,9.45
2022-11-29T06:20:19.151Z,9.10
2022-11-29T06:26:37.573Z,9.43
2022-11-29T06:32:57.440Z,9.48
2022-11-29T06:38:59.271Z,9.90
2022-11-29T06:45:00.991Z,9.70
2022-11-29T06:51:05.763Z,9.37
2022-11-29T06:57:30.683Z,9.50
2022-11-29T07:03:41.498Z,9.40
2022-11-29T07:09:43.351Z,8.17
2022-11-29T07:16:06.038Z,9.05
2022-11-29T07:22:26.456Z,9.07
2022-11-29T07:28:33.708Z,9.05
2022-11-29T07:34:41.154Z,8.57
2022-11-29T07:40:50.864Z,8.93
2022-11-29T07:46:52.458Z,9.05
2022-11-29T07:52:54.490Z,8.50
2022-11-29T07:58:56.038Z,8.85
2022-11-29T08:04:57.569Z,9.18
2022-11-29T08:10:59.244Z,8.90
2022-11-29T08:17:00.731Z,9.05
2022-11-29T08:23:03.452Z,8.70
2022-11-29T08:29:04.979Z,9.10
2022-11-29T08:35:06.641Z,8.40
2022-11-29T08:41:09.398Z,9.03
2022-11-29T08:47:29.374Z,9.18
2022-11-29T08:53:43.689Z,9.07
2022-11-29T08:59:45.188Z,9.43
2022-11-29T09:05:46.802Z,9.07
2022-11-29T09:11:49.676Z,8.73
2022-11-29T09:17:51.550Z,9.05
2022-11-29T09:23:59.445Z,8.77
2022-11-29T09:30:00.952Z,9.05
2022-11-29T09:36:03.092Z,8.23
2022-11-29T09:42:09.668Z,8.90
2022-11-29T09:48:26.557Z,9.15
2022-11-29T09:54:30.977Z,8.30
2022-11-29T10:00:35.331Z,8.18
2022-11-29T10:06:40.191Z,9.27
2022-11-29T10:12:48.372Z,7.90
2022-11-29T10:18:52.138Z,8.57
2022-11-29T10:24:57.372Z,8.73
2022-11-29T10:31:02.068Z,7.95
2022-11-29T10:37:03.878Z,8.55
2022-11-29T10:43:05.611Z,8.33
2022-11-29T10:49:11.927Z,8.82
2022-11-29T10:55:14.667Z,8.67
2022-11-29T11:01:16.575Z,8.80
2022-11-29T11:07:30.002Z,8.32
2022-11-29T11:13:32.271Z,8.23
2022-11-29T11:19:34.350Z,8.30
2022-11-29T11:25:39.524Z,8.37
2022-11-29T11:31:41.085Z,7.75
2022-11-29T11:37:53.439Z,7.53
2022-11-29T11:43:57.101Z,8.00
2022-11-29T11:50:04.435Z,8.43
2022-11-29T11:56:08.196Z,8.27
2022-11-29T12:02:35.454Z,7.80
2022-11-29T12:08:38.131Z,7.88
2022-11-29T12:14:46.500Z,8.07
2022-11-29T12:21:00.264Z,7.70
2022-11-29T12:27:04.016Z,7.80
2022-11-29T12:33:20.898Z,7.60
2022-11-29T12:39:30.001Z,7.75
2022-11-29T12:45:45.268Z,8.67
2022-11-29T12:51:53.689Z,8.65
2022-11-29T12:58:04.873Z,7.73
2022-11-29T13:04:14.773Z,7.70
2022-11-29T13:10:31.727Z,8.38
2022-11-29T13:16:39.254Z,7.37
2022-11-29T13:22:52.971Z,7.93
2022-11-29T13:28:54.487Z,8.30
2022-11-29T13:34:58.830Z,8.18
2022-11-29T13:41:20.159Z,7.95
2022-11-29T13:47:21.880Z,7.30
2022-11-29T13:53:25.093Z,8.82
2022-11-29T13:59:30.478Z,7.83
2022-11-29T14:05:37.170Z,7.97
2022-11-29T14:11:48.783Z,7.72
2022-11-29T14:17:55.664Z,7.93
2022-11-29T14:24:17.114Z,8.20
2022-11-29T14:30:37.258Z,7.70
2022-11-29T14:36:41.600Z,7.35
2022-11-29T14:42:48.128Z,7.38
2022-11-29T14:48:55.642Z,8.37
2022-11-29T14:55:02.963Z,8.15
2022-11-29T15:01:10.777Z,7.90
2022-11-29T15:07:16.807Z,7.25
2022-11-29T15:13:38.599Z,8.15
2022-11-29T15:19:49.130Z,7.73
2022-11-29T15:25:51.868Z,8.20
2022-11-29T15:31:54.585Z,7.93
2022-11-29T15:37:56.452Z,8.20
2022-11-29T15:44:02.109Z,8.20
2022-11-29T15:50:24.774Z,8.13
2022-11-29T15:56:35.735Z,8.88
2022-11-29T16:02:40.525Z,9.43
2022-11-29T16:08:43.401Z,8.63
2022-11-29T16:14:48.977Z,8.60
2022-11-29T16:21:00.263Z,8.97
2022-11-29T16:27:01.928Z,9.07
2022-11-29T16:33:03.645Z,9.27
2022-11-29T16:39:06.868Z,8.88
2022-11-29T16:45:27.287Z,8.85
2022-11-29T16:51:38.633Z,8.70
2022-11-29T16:57:40.281Z,9.25
2022-11-29T17:03:41.762Z,8.87
2022-11-29T17:09:43.263Z,8.02
2022-11-29T17:15:44.738Z,9.10
2022-11-29T17:21:46.330Z,8.60
2022-11-29T17:27:48.879Z,8.75
2022-11-29T17:33:51.198Z,8.70
2022-11-29T17:39:52.752Z,9.05
2022-11-29T17:45:54.323Z,8.77
2022-11-29T17:51:55.952Z,8.60
2022-11-29T17:57:57.461Z,9.23
2022-11-29T18:03:59.738Z,9.37
2022-11-29T18:10:01.249Z,8.65
2022-11-29T18:16:04.447Z,7.97
2022-11-29T18:22:05.914Z,7.50
2022-11-29T18:28:07.647Z,8.85
2022-11-29T18:34:10.160Z,8.70
2022-11-29T18:40:12.099Z,8.90
2022-11-29T18:46:17.547Z,9.52
2022-11-29T18:52:19.823Z,9.17
2022-11-29T18:58:21.341Z,9.35
2022-11-29T19:04:22.851Z,8.17
2022-11-29T19:10:24.455Z,7.40
2022-11-29T19:16:27.079Z,7.55
2022-11-29T19:22:29.949Z,9.20
2022-11-29T19:28:31.496Z,10.57
2022-11-29T19:34:33.049Z,10.63
2022-11-29T19:40:34.535Z,9.70
2022-11-29T19:46:37.662Z,9.23
2022-11-29T19:52:39.304Z,7.97
2022-11-29T19:58:41.179Z,8.52
2022-11-29T20:04:43.410Z,7.67
2022-11-29T20:10:45.313Z,7.55
2022-11-29T20:16:46.876Z,7.88
2022-11-29T20:22:48.456Z,7.53
2022-11-29T20:28:50.226Z,7.88
2022-11-29T20:34:51.915Z,7.50
2022-11-29T20:41:03.088Z,7.82
2022-11-29T20:47:16.200Z,8.35
2022-11-29T20:53:27.643Z,8.13
2022-11-29T20:59:29.232Z,8.13
2022-11-29T21:05:30.773Z,9.30
2022-11-29T21:11:32.446Z,8.68
2022-11-29T21:17:34.235Z,8.63
2022-11-29T21:23:46.429Z,8.70
2022-11-29T21:29:48.071Z,9.52
2022-11-29T21:35:53.027Z,9.33
2022-11-29T21:41:54.610Z,9.00
2022-11-29T21:47:59.179Z,9.05
2022-11-29T21:54:01.022Z,8.73
2022-11-29T22:00:03.435Z,8.70
2022-11-29T22:06:07.202Z,8.77
2022-11-29T22:12:32.027Z,8.32
2022-11-29T22:18:30.232Z,8.20
2022-11-29T22:24:33.115Z,8.07
2022-11-29T22:30:35.793Z,8.82
2022-11-29T22:36:38.323Z,8.97
2022-11-29T22:42:41.308Z,8.75
2022-11-29T22:48:43.958Z,8.35
2022-11-29T22:54:45.833Z,8.23
2022-11-29T23:00:47.628Z,8.75
2022-11-29T23:06:49.179Z,8.87
2022-11-29T23:12:50.711Z,8.75
2022-11-29T23:18:52.548Z,8.60
2022-11-29T23:24:54.066Z,8.97
2022-11-29T23:30:55.598Z,8.70
2022-11-29T23:36:57.082Z,8.83
2022-11-29T23:42:58.584Z,8.70
2022-11-29T23:49:00.076Z,9.00
2022-11-29T23:55:01.572Z,8.83
